Time;durP1;ratioP1;P1;durP2;ratioP2;P2;SDS_P1;SDS_P2;PMS_P1;PMS_P2;Temp;Humidity;BMP_temperature;BMP_pressure;BME280_temperature;BME280_humidity;BME280_pressure;Samples;Min_cycle;Max_cycle;Signal;HPM_P1;HPM_P2
2023/06/07 00:00:23;;;;;;;28.20;25.17;;;17.10;99.90;;;;;;2097663;28;20055;-81
2023/06/07 00:01:25;;;;;;;28.52;25.52;;;17.10;99.90;;;;;;2087858;28;20036;-80
2023/06/07 00:02:27;;;;;;;27.00;24.10;;;17.10;99.90;;;;;;2096245;28;20059;-80
2023/06/07 00:03:28;;;;;;;31.60;25.60;;;17.10;99.90;;;;;;2098779;28;20028;-80
2023/06/07 00:04:30;;;;;;;28.15;25.08;;;17.10;99.90;;;;;;2102086;28;20025;-81
2023/06/07 00:05:31;;;;;;;29.52;26.52;;;17.10;99.90;;;;;;2091067;28;20040;-80
2023/06/07 00:06:32;;;;;;;32.83;27.77;;;17.10;99.90;;;;;;2094195;28;20044;-80
2023/06/07 00:07:35;;;;;;;30.77;26.65;;;17.20;99.90;;;;;;2101639;28;20024;-81
2023/06/07 00:08:36;;;;;;;29.33;26.33;;;17.10;99.90;;;;;;2092906;28;20028;-81
2023/06/07 00:09:36;;;;;;;31.17;27.35;;;17.10;99.90;;;;;;2091356;28;20024;-79
2023/06/07 00:10:37;;;;;;;28.13;25.33;;;17.10;99.90;;;;;;2089855;28;20033;-79
2023/06/07 00:11:37;;;;;;;27.25;24.45;;;17.10;99.90;;;;;;2089166;28;20036;-79
2023/06/07 00:12:38;;;;;;;28.30;25.23;;;17.10;99.90;;;;;;2098595;28;20036;-79
2023/06/07 00:13:38;;;;;;;27.77;24.77;;;17.10;99.90;;;;;;2097600;28;20439;-81
2023/06/07 00:14:39;;;;;;;30.38;27.13;;;17.10;99.90;;;;;;2101613;28;20115;-80
2023/06/07 00:15:39;;;;;;;28.55;25.55;;;17.10;99.90;;;;;;2083154;28;20593;-79
2023/06/07 00:16:40;;;;;;;27.48;24.70;;;17.10;99.90;;;;;;2100684;28;20038;-79
2023/06/07 00:17:40;;;;;;;27.65;24.75;;;17.10;99.90;;;;;;2100862;28;20034;-77
2023/06/07 00:18:41;;;;;;;25.73;23.02;;;17.10;99.90;;;;;;2100723;28;20076;-80
2023/06/07 00:19:42;;;;;;;25.63;23.02;;;17.00;99.90;;;;;;2097832;28;20052;-77
2023/06/07 00:20:45;;;;;;;28.38;25.17;;;17.10;99.90;;;;;;2094450;28;20025;-77
2023/06/07 00:21:46;;;;;;;29.05;25.92;;;17.10;99.90;;;;;;2097871;28;20423;-78
2023/06/07 00:22:47;;;;;;;29.00;26.00;;;17.00;99.90;;;;;;2101539;28;20025;-80
2023/06/07 00:23:48;;;;;;;27.70;24.70;;;17.10;99.90;;;;;;2100851;28;20045;-79
2023/06/07 00:24:52;;;;;;;28.23;25.30;;;17.00;99.90;;;;;;2101463;28;20035;-78
2023/06/07 00:25:52;;;;;;;27.70;24.73;;;17.10;99.90;;;;;;2092448;28;20036;-77
2023/06/07 00:26:53;;;;;;;31.83;26.95;;;17.00;99.90;;;;;;2082994;28;20017;-77
2023/06/07 00:27:54;;;;;;;28.75;25.77;;;17.00;99.90;;;;;;2098553;28;20027;-78
2023/06/07 00:28:54;;;;;;;35.53;30.75;;;17.00;99.90;;;;;;2096911;28;20399;-78
2023/06/07 00:29:55;;;;;;;29.95;26.70;;;17.00;99.90;;;;;;2096029;28;20047;-77
2023/06/07 00:30:55;;;;;;;29.10;26.02;;;17.00;99.90;;;;;;2094424;28;20112;-77
2023/06/07 00:31:56;;;;;;;28.35;25.45;;;17.00;99.90;;;;;;2094983;28;20435;-78
2023/06/07 00:32:56;;;;;;;28.70;25.52;;;17.00;99.90;;;;;;2102124;28;20544;-76
2023/06/07 00:33:57;;;;;;;27.70;24.80;;;17.00;99.90;;;;;;2096039;28;20040;-79
2023/06/07 00:34:58;;;;;;;29.88;26.05;;;17.00;99.90;;;;;;2101843;28;20032;-79
2023/06/07 00:35:58;;;;;;;26.90;24.17;;;17.00;99.90;;;;;;2103767;28;20027;-78
2023/06/07 00:36:59;;;;;;;32.80;29.23;;;17.00;99.90;;;;;;2083536;28;20056;-79
2023/06/07 00:37:59;;;;;;;34.30;28.40;;;17.00;99.90;;;;;;2094371;28;20035;-78
2023/06/07 00:39:02;;;;;;;28.10;25.20;;;17.00;99.90;;;;;;2089343;28;20025;-79
2023/06/07 00:40:04;;;;;;;27.52;24.63;;;16.90;99.90;;;;;;2102904;28;20039;-80
2023/06/07 00:41:05;;;;;;;29.45;25.00;;;16.90;99.90;;;;;;2096969;28;20389;-77
2023/06/07 00:42:07;;;;;;;33.03;29.27;;;16.90;99.90;;;;;;2092788;28;20036;-79
2023/06/07 00:43:08;;;;;;;30.60;27.35;;;16.90;99.90;;;;;;2085805;28;20032;-79
2023/06/07 00:44:08;;;;;;;34.65;30.98;;;16.90;99.90;;;;;;2091966;28;20036;-78
2023/06/07 00:45:09;;;;;;;30.70;27.45;;;16.90;99.90;;;;;;2095669;28;20111;-78
2023/06/07 00:46:13;;;;;;;30.92;27.73;;;16.90;99.90;;;;;;2094709;28;20020;-79
2023/06/07 00:47:14;;;;;;;31.45;28.15;;;16.90;99.90;;;;;;2101359;28;20045;-78
2023/06/07 00:48:14;;;;;;;35.35;28.52;;;16.90;99.90;;;;;;2096062;28;20572;-80
2023/06/07 00:49:16;;;;;;;32.08;28.67;;;16.90;99.90;;;;;;2101818;28;20399;-78
2023/06/07 00:50:17;;;;;;;29.25;26.08;;;16.90;99.90;;;;;;2096170;28;20415;-79
2023/06/07 00:51:18;;;;;;;27.70;24.73;;;16.80;99.90;;;;;;2092431;28;20037;-79
2023/06/07 00:52:20;;;;;;;31.13;27.65;;;16.90;99.90;;;;;;2087138;28;20491;-78
2023/06/07 00:53:22;;;;;;;29.83;26.77;;;16.90;99.90;;;;;;2094065;28;20545;-78
2023/06/07 00:54:22;;;;;;;29.05;25.92;;;16.90;99.90;;;;;;2101764;28;20047;-77
2023/06/07 00:55:23;;;;;;;29.95;26.85;;;16.80;99.90;;;;;;2102578;28;20020;-78
2023/06/07 00:56:29;;;;;;;33.90;30.35;;;16.90;99.90;;;;;;2097439;28;20119;-77
2023/06/07 00:57:33;;;;;;;30.50;26.30;;;16.80;99.90;;;;;;2096822;28;20598;-79
2023/06/07 00:58:33;;;;;;;31.05;27.17;;;16.80;99.90;;;;;;2092157;28;20111;-77
2023/06/07 00:59:35;;;;;;;29.33;26.10;;;16.80;99.90;;;;;;2097101;28;20028;-78
2023/06/07 01:00:37;;;;;;;27.13;24.33;;;16.80;99.90;;;;;;2091272;28;20032;-78
2023/06/07 01:01:39;;;;;;;28.40;25.13;;;16.80;99.90;;;;;;2088381;28;20086;-79
2023/06/07 01:02:40;;;;;;;31.77;26.52;;;16.80;99.90;;;;;;2094042;28;20033;-79
2023/06/07 01:03:41;;;;;;;28.73;25.63;;;16.80;99.90;;;;;;2103508;28;20146;-79
2023/06/07 01:04:42;;;;;;;31.88;27.02;;;16.70;99.90;;;;;;2091466;28;20031;-78
2023/06/07 01:05:44;;;;;;;29.17;25.98;;;16.80;99.90;;;;;;2079117;28;20037;-78
2023/06/07 01:06:45;;;;;;;28.85;25.80;;;16.70;99.90;;;;;;2084243;28;20025;-78
2023/06/07 01:07:49;;;;;;;27.50;24.70;;;16.70;99.90;;;;;;2081885;28;20028;-79
2023/06/07 01:08:51;;;;;;;28.60;25.73;;;16.70;99.90;;;;;;2092947;28;20055;-78
2023/06/07 01:09:53;;;;;;;28.23;25.23;;;16.70;99.90;;;;;;2083901;28;20559;-79
2023/06/07 01:10:54;;;;;;;28.98;25.92;;;16.70;99.90;;;;;;2093357;28;20095;-80
2023/06/07 01:11:57;;;;;;;28.90;25.88;;;16.70;99.90;;;;;;2093155;28;20063;-78
2023/06/07 01:13:03;;;;;;;30.33;26.63;;;16.70;99.90;;;;;;2091911;28;20047;-79
2023/06/07 01:14:05;;;;;;;30.70;27.50;;;16.70;99.90;;;;;;2099930;28;20015;-81
2023/06/07 01:15:06;;;;;;;30.73;27.52;;;16.70;99.90;;;;;;2092689;28;20024;-80
2023/06/07 01:16:08;;;;;;;29.85;25.85;;;16.70;99.90;;;;;;2089325;28;20029;-79
2023/06/07 01:17:12;;;;;;;30.00;26.80;;;16.70;99.90;;;;;;2097248;28;20043;-78
2023/06/07 01:18:13;;;;;;;28.58;25.55;;;16.60;99.90;;;;;;2093446;28;22643;-78
2023/06/07 01:19:21;;;;;;;32.55;29.00;;;16.70;99.90;;;;;;2086279;28;20062;-79
2023/06/07 01:20:26;;;;;;;32.10;27.35;;;16.70;99.90;;;;;;2098517;28;20032;-78
2023/06/07 01:21:26;;;;;;;36.70;30.27;;;16.70;99.90;;;;;;2093529;28;20025;-80
2023/06/07 01:22:32;;;;;;;35.10;29.98;;;16.60;99.90;;;;;;2096877;28;20083;-80
2023/06/07 01:23:33;;;;;;;31.13;27.80;;;16.60;99.90;;;;;;2096037;28;20078;-79
2023/06/07 01:24:42;;;;;;;35.45;28.45;;;16.60;99.90;;;;;;2087196;28;20101;-79
2023/06/07 01:25:43;;;;;;;33.08;28.25;;;16.60;99.90;;;;;;2090948;28;20036;-80
2023/06/07 01:26:46;;;;;;;31.63;27.30;;;16.60;99.90;;;;;;2099675;28;20036;-80
2023/06/07 01:27:50;;;;;;;32.80;27.35;;;16.60;99.90;;;;;;2090186;28;20106;-80
2023/06/07 01:28:52;;;;;;;34.17;30.00;;;16.60;99.90;;;;;;2083903;28;20094;-80
2023/06/07 01:29:57;;;;;;;36.00;29.10;;;16.60;99.90;;;;;;2102407;28;20039;-80
2023/06/07 01:31:00;;;;;;;36.90;30.08;;;16.60;99.90;;;;;;2107888;27;20759;-80
2023/06/07 01:32:05;;;;;;;36.33;29.65;;;16.60;99.90;;;;;;2098237;28;20036;-79
2023/06/07 01:33:07;;;;;;;41.42;32.10;;;16.60;99.90;;;;;;2093330;28;20411;-79
2023/06/07 01:34:08;;;;;;;39.40;31.20;;;16.60;99.90;;;;;;2087602;28;20056;-78
2023/06/07 01:35:11;;;;;;;39.80;31.83;;;16.60;99.90;;;;;;2085719;28;20115;-77
2023/06/07 01:36:14;;;;;;;35.58;29.50;;;16.60;99.90;;;;;;2100109;28;20125;-77
2023/06/07 01:37:18;;;;;;;34.92;29.13;;;16.60;99.90;;;;;;2099289;28;20036;-80
2023/06/07 01:38:21;;;;;;;37.65;31.00;;;16.60;99.90;;;;;;2094536;28;20699;-76
2023/06/07 01:39:24;;;;;;;34.90;29.08;;;16.70;99.90;;;;;;2102296;28;20488;-78
2023/06/07 01:40:26;;;;;;;33.63;29.80;;;16.60;99.90;;;;;;2100152;28;20143;-77
2023/06/07 01:41:30;;;;;;;32.88;27.98;;;16.60;99.90;;;;;;2098803;28;20028;-79
2023/06/07 01:42:33;;;;;;;33.90;29.25;;;16.60;99.90;;;;;;2094174;28;20036;-78
2023/06/07 01:43:36;;;;;;;31.63;28.05;;;16.60;99.90;;;;;;2092665;28;20060;-78
2023/06/07 01:44:39;;;;;;;31.75;28.30;;;16.60;99.90;;;;;;2092957;28;20028;-81
2023/06/07 01:45:41;;;;;;;36.42;32.40;;;16.60;99.90;;;;;;2090928;28;20028;-78
2023/06/07 01:46:42;;;;;;;32.70;29.20;;;16.60;99.90;;;;;;2084346;28;20043;-78
2023/06/07 01:47:43;;;;;;;31.83;28.38;;;16.60;99.90;;;;;;2072518;28;20064;-79
2023/06/07 01:48:44;;;;;;;32.65;29.15;;;16.60;99.90;;;;;;2084293;28;20173;-78
2023/06/07 01:49:44;;;;;;;35.40;31.17;;;16.50;99.90;;;;;;2101339;28;20028;-78
2023/06/07 01:50:45;;;;;;;35.65;30.23;;;16.50;99.90;;;;;;2092138;28;20059;-79
2023/06/07 01:51:46;;;;;;;32.65;29.15;;;16.50;99.90;;;;;;2089998;28;20032;-78
2023/06/07 01:52:47;;;;;;;31.67;28.33;;;16.50;99.90;;;;;;2090114;28;20032;-79
2023/06/07 01:53:51;;;;;;;33.10;28.15;;;16.50;99.90;;;;;;2099297;28;20051;-78
2023/06/07 01:54:54;;;;;;;30.45;27.08;;;16.50;99.90;;;;;;2096331;28;20024;-78
2023/06/07 01:56:05;;;;;;;32.22;27.98;;;16.50;99.90;;;;;;2093448;28;20028;-79
2023/06/07 01:57:21;;;;;;;29.38;26.27;;;16.50;99.90;;;;;;2096343;28;20020;-78
2023/06/07 01:59:08;;;;;;;29.48;26.40;;;16.50;99.90;;;;;;2092742;28;20053;-79
2023/06/07 02:00:29;;;;;;;30.73;27.38;;;16.50;99.90;;;;;;2077766;28;20028;-78
2023/06/07 02:01:54;;;;;;;32.08;27.95;;;16.50;99.90;;;;;;2075145;28;20108;-79
2023/06/07 02:02:59;;;;;;;32.75;28.70;;;16.50;99.90;;;;;;2088976;28;20119;-78
2023/06/07 02:04:01;;;;;;;32.60;29.10;;;16.50;99.90;;;;;;2104360;28;20045;-79
2023/06/07 02:05:06;;;;;;;36.08;29.83;;;16.40;99.90;;;;;;2101007;28;20019;-79
2023/06/07 02:06:11;;;;;;;32.83;29.17;;;16.40;99.90;;;;;;2090317;28;20657;-78
2023/06/07 02:07:18;;;;;;;31.95;27.40;;;16.40;99.90;;;;;;2086981;28;20118;-79
2023/06/07 02:08:37;;;;;;;32.28;28.77;;;16.40;99.90;;;;;;2082936;28;20044;-78
2023/06/07 02:09:42;;;;;;;35.08;30.17;;;16.40;99.90;;;;;;2087541;28;20038;-80
2023/06/07 02:10:44;;;;;;;35.20;31.48;;;16.40;99.90;;;;;;2088381;28;20055;-79
2023/06/07 02:11:47;;;;;;;33.97;30.35;;;16.40;99.90;;;;;;2086955;28;20112;-80
2023/06/07 02:12:51;;;;;;;36.03;30.08;;;16.40;99.90;;;;;;2094278;28;20533;-79
2023/06/07 02:13:53;;;;;;;38.08;31.20;;;16.40;99.90;;;;;;2090834;28;20027;-79
2023/06/07 02:14:53;;;;;;;33.67;30.08;;;16.40;99.90;;;;;;2085856;28;20061;-78
2023/06/07 02:15:54;;;;;;;31.95;28.50;;;16.40;99.90;;;;;;2097164;28;20021;-79
2023/06/07 02:16:55;;;;;;;32.00;28.60;;;16.40;99.90;;;;;;2084599;28;20070;-79
2023/06/07 02:18:01;;;;;;;32.20;28.33;;;16.40;99.90;;;;;;2085659;28;20028;-79
2023/06/07 02:19:06;;;;;;;32.83;29.08;;;16.40;99.90;;;;;;2099203;28;20153;-79
2023/06/07 02:20:08;;;;;;;34.95;30.60;;;16.40;99.90;;;;;;2093194;28;20143;-77
2023/06/07 02:21:10;;;;;;;34.40;30.77;;;16.40;99.90;;;;;;2103350;28;20028;-79
2023/06/07 02:22:15;;;;;;;36.20;32.40;;;16.40;99.90;;;;;;2097740;28;20019;-79
2023/06/07 02:23:15;;;;;;;33.88;30.10;;;16.40;99.90;;;;;;2094565;28;20036;-79
2023/06/07 02:24:17;;;;;;;36.47;32.38;;;16.40;99.90;;;;;;2093669;28;20077;-78
2023/06/07 02:25:18;;;;;;;33.78;29.67;;;16.40;99.90;;;;;;2091356;28;20633;-79
2023/06/07 02:26:20;;;;;;;31.70;28.33;;;16.40;99.90;;;;;;2096100;28;20039;-78
2023/06/07 02:27:20;;;;;;;32.90;29.48;;;16.40;99.90;;;;;;2083453;28;20032;-80
2023/06/07 02:28:21;;;;;;;31.60;28.20;;;16.40;99.90;;;;;;2082677;28;20045;-79
2023/06/07 02:29:22;;;;;;;31.83;28.50;;;16.40;99.90;;;;;;2094444;28;20102;-79
2023/06/07 02:30:23;;;;;;;33.17;28.70;;;16.40;99.90;;;;;;2103486;28;20015;-78
2023/06/07 02:31:24;;;;;;;33.53;30.05;;;16.40;99.90;;;;;;2097451;28;20031;-79
2023/06/07 02:32:25;;;;;;;33.83;30.20;;;16.40;99.90;;;;;;2092278;28;20026;-78
2023/06/07 02:33:26;;;;;;;35.00;31.25;;;16.40;99.90;;;;;;2092426;28;20099;-79
2023/06/07 02:34:29;;;;;;;36.70;32.97;;;16.40;99.90;;;;;;2092690;28;20040;-80
2023/06/07 02:35:31;;;;;;;36.50;32.40;;;16.40;99.90;;;;;;2093043;28;20803;-78
2023/06/07 02:36:33;;;;;;;34.45;30.83;;;16.40;99.90;;;;;;2093701;28;20136;-78
2023/06/07 02:37:34;;;;;;;33.63;30.02;;;16.40;99.90;;;;;;2091416;28;20032;-78
2023/06/07 02:38:34;;;;;;;35.70;30.13;;;16.40;99.90;;;;;;2100039;28;20039;-79
2023/06/07 02:39:35;;;;;;;33.65;30.23;;;16.40;99.90;;;;;;2095697;28;20094;-78
2023/06/07 02:40:35;;;;;;;32.22;28.52;;;16.40;99.90;;;;;;2097451;28;20118;-79
2023/06/07 02:41:36;;;;;;;31.13;27.83;;;16.40;99.90;;;;;;2093989;28;20178;-78
2023/06/07 02:42:37;;;;;;;31.58;28.27;;;16.40;99.90;;;;;;2096903;28;20170;-79
2023/06/07 02:43:37;;;;;;;33.42;29.80;;;16.40;99.90;;;;;;2091756;28;20044;-79
2023/06/07 02:44:38;;;;;;;31.60;28.13;;;16.40;99.90;;;;;;2093322;28;20029;-79
2023/06/07 02:45:39;;;;;;;31.67;28.38;;;16.40;99.90;;;;;;2079607;28;20061;-79
2023/06/07 02:46:39;;;;;;;34.03;30.42;;;16.40;99.90;;;;;;2088353;28;20724;-78
2023/06/07 02:47:41;;;;;;;32.85;29.08;;;16.40;99.90;;;;;;2089997;28;20036;-78
2023/06/07 02:48:42;;;;;;;32.58;29.13;;;16.40;99.90;;;;;;2095377;28;20102;-79
2023/06/07 02:49:42;;;;;;;32.30;28.67;;;16.40;99.90;;;;;;2101676;28;20027;-78
2023/06/07 02:50:43;;;;;;;36.63;31.90;;;16.40;99.90;;;;;;2098784;28;20554;-77
2023/06/07 02:51:44;;;;;;;36.35;30.92;;;16.40;99.90;;;;;;2093990;28;20677;-78
2023/06/07 02:52:46;;;;;;;34.72;30.73;;;16.40;99.90;;;;;;2088525;28;20500;-79
2023/06/07 02:53:49;;;;;;;35.70;31.63;;;16.40;99.90;;;;;;2095479;28;20025;-78
2023/06/07 02:54:51;;;;;;;36.47;32.33;;;16.40;99.90;;;;;;2096920;28;20044;-79
2023/06/07 02:55:52;;;;;;;41.08;36.67;;;16.40;99.90;;;;;;2081748;28;20075;-79
2023/06/07 02:56:52;;;;;;;38.85;34.13;;;16.40;99.90;;;;;;2079341;28;20029;-80
2023/06/07 02:57:53;;;;;;;36.97;32.72;;;16.40;99.90;;;;;;2092257;28;20048;-79
2023/06/07 02:58:56;;;;;;;39.80;34.60;;;16.40;99.90;;;;;;2098157;28;20024;-79
2023/06/07 02:59:59;;;;;;;35.05;31.38;;;16.40;99.90;;;;;;2099271;28;20033;-80
2023/06/07 03:01:11;;;;;;;34.50;30.80;;;16.40;99.90;;;;;;2094585;28;20028;-80
2023/06/07 03:02:18;;;;;;;37.15;31.80;;;16.40;99.90;;;;;;2099541;28;20394;-79
2023/06/07 03:03:23;;;;;;;34.92;31.25;;;16.40;99.90;;;;;;2088697;28;20044;-79
2023/06/07 03:04:31;;;;;;;35.67;31.83;;;16.40;99.90;;;;;;2085583;28;20028;-79
2023/06/07 03:05:33;;;;;;;34.30;30.30;;;16.40;99.90;;;;;;2083995;28;20025;-79
2023/06/07 03:06:41;;;;;;;35.70;29.80;;;16.40;99.90;;;;;;2088813;28;20029;-79
2023/06/07 03:07:50;;;;;;;35.53;30.48;;;16.40;99.90;;;;;;2089093;28;20118;-79
2023/06/07 03:08:50;;;;;;;37.00;33.28;;;16.40;99.90;;;;;;2084889;28;20028;-80
2023/06/07 03:09:56;;;;;;;34.15;30.58;;;16.40;99.90;;;;;;2088745;28;20029;-80
2023/06/07 03:10:57;;;;;;;34.75;31.05;;;16.40;99.90;;;;;;2092902;28;20049;-79
2023/06/07 03:12:04;;;;;;;35.65;31.73;;;16.40;99.90;;;;;;2089607;28;20115;-79
2023/06/07 03:13:11;;;;;;;34.72;30.98;;;16.40;99.90;;;;;;2092771;28;20037;-79
2023/06/07 03:14:13;;;;;;;38.85;34.75;;;16.40;99.90;;;;;;2087940;28;20466;-80
2023/06/07 03:15:18;;;;;;;34.63;30.90;;;16.40;99.90;;;;;;2082133;28;20118;-80
2023/06/07 03:16:22;;;;;;;35.78;30.08;;;16.40;99.90;;;;;;2083649;28;20028;-80
2023/06/07 03:17:30;;;;;;;35.38;31.58;;;16.40;99.90;;;;;;2092025;28;20363;-79
2023/06/07 03:18:32;;;;;;;35.83;31.92;;;16.40;99.90;;;;;;2091310;28;20095;-78
2023/06/07 03:19:35;;;;;;;34.72;31.08;;;16.40;99.90;;;;;;2088122;28;20037;-79
2023/06/07 03:20:37;;;;;;;41.63;35.17;;;16.40;99.90;;;;;;2088513;28;20545;-79
2023/06/07 03:21:45;;;;;;;39.70;35.25;;;16.40;99.90;;;;;;2093923;28;20028;-79
2023/06/07 03:22:47;;;;;;;42.03;36.53;;;16.40;99.90;;;;;;2091702;28;20534;-80
2023/06/07 03:23:49;;;;;;;35.30;31.65;;;16.50;99.90;;;;;;2093377;28;20032;-79
2023/06/07 03:24:52;;;;;;;38.40;34.30;;;16.40;99.90;;;;;;2089227;28;20093;-79
2023/06/07 03:25:56;;;;;;;35.50;31.55;;;16.50;99.90;;;;;;2096970;28;20028;-80
2023/06/07 03:27:00;;;;;;;33.55;29.80;;;16.50;99.90;;;;;;2095711;28;20073;-81
2023/06/07 03:28:02;;;;;;;32.05;28.65;;;16.50;99.90;;;;;;2096317;28;20016;-80
2023/06/07 03:29:10;;;;;;;32.10;28.50;;;16.50;99.90;;;;;;2096853;28;20025;-79
2023/06/07 03:30:12;;;;;;;32.15;28.65;;;16.50;99.90;;;;;;2083881;28;20040;-79
2023/06/07 03:31:16;;;;;;;31.70;28.13;;;16.50;99.90;;;;;;2092220;28;20036;-79
2023/06/07 03:32:25;;;;;;;35.80;31.08;;;16.60;99.90;;;;;;2095703;28;20443;-79
2023/06/07 03:33:27;;;;;;;34.90;30.63;;;16.60;99.90;;;;;;2082104;28;20056;-79
2023/06/07 03:34:29;;;;;;;31.98;28.60;;;16.60;99.90;;;;;;2086570;28;20059;-80
2023/06/07 03:35:33;;;;;;;34.53;30.70;;;16.70;99.90;;;;;;2073496;28;20040;-78
2023/06/07 03:36:36;;;;;;;31.88;28.50;;;16.70;99.90;;;;;;2081163;28;20017;-79
2023/06/07 03:37:37;;;;;;;38.67;33.35;;;16.70;99.90;;;;;;2079949;28;20037;-76
2023/06/07 03:38:37;;;;;;;40.58;33.80;;;16.70;99.90;;;;;;2083754;28;22066;-78
2023/06/07 03:39:39;;;;;;;34.03;30.50;;;16.70;99.90;;;;;;2089574;28;20032;-79
2023/06/07 03:40:39;;;;;;;34.75;30.95;;;16.70;99.90;;;;;;2084583;28;20127;-78
2023/06/07 03:41:40;;;;;;;36.28;32.42;;;16.70;99.90;;;;;;2087884;28;20199;-78
2023/06/07 03:42:42;;;;;;;37.28;33.03;;;16.70;99.90;;;;;;2090912;28;20158;-79
2023/06/07 03:43:43;;;;;;;33.88;30.27;;;16.70;99.90;;;;;;2092865;28;20032;-79
2023/06/07 03:44:45;;;;;;;34.08;30.35;;;16.70;99.90;;;;;;2086469;28;20028;-79
2023/06/07 03:45:46;;;;;;;35.78;31.75;;;16.70;99.90;;;;;;2096674;28;20047;-80
2023/06/07 03:46:48;;;;;;;33.22;29.70;;;16.80;99.90;;;;;;2091824;28;20016;-79
2023/06/07 03:47:50;;;;;;;32.88;29.33;;;16.80;99.90;;;;;;2087817;28;20012;-79
2023/06/07 03:48:51;;;;;;;35.10;29.80;;;16.80;99.90;;;;;;2091625;28;20089;-79
2023/06/07 03:49:51;;;;;;;33.13;29.52;;;16.80;99.90;;;;;;2098068;28;20529;-79
2023/06/07 03:50:53;;;;;;;34.53;29.27;;;16.80;99.90;;;;;;2097102;28;20021;-79
2023/06/07 03:51:54;;;;;;;34.65;30.85;;;16.80;99.90;;;;;;2097185;28;20531;-80
2023/06/07 03:52:54;;;;;;;33.70;30.13;;;16.90;99.90;;;;;;2092416;28;20111;-79
2023/06/07 03:53:55;;;;;;;36.28;32.40;;;16.90;99.90;;;;;;2084774;28;20029;-78
2023/06/07 03:54:56;;;;;;;33.88;30.15;;;16.90;99.90;;;;;;2089097;28;20135;-80
2023/06/07 03:55:58;;;;;;;31.60;28.27;;;16.90;99.90;;;;;;2100731;28;20066;-78
2023/06/07 03:57:01;;;;;;;33.17;29.75;;;16.90;99.90;;;;;;2092746;28;20036;-79
2023/06/07 03:58:02;;;;;;;36.08;31.35;;;17.00;99.90;;;;;;2094564;28;21228;-80
2023/06/07 03:59:06;;;;;;;38.00;30.85;;;17.00;99.90;;;;;;2086158;28;20601;-79
2023/06/07 04:00:10;;;;;;;32.80;29.45;;;17.00;99.90;;;;;;2086520;28;20567;-79
2023/06/07 04:01:18;;;;;;;34.33;30.65;;;17.00;99.90;;;;;;2091014;28;20032;-79
2023/06/07 04:02:20;;;;;;;34.20;30.45;;;17.00;99.90;;;;;;2090207;28;20024;-79
2023/06/07 04:03:24;;;;;;;32.65;29.17;;;17.10;99.90;;;;;;2092550;28;20037;-78
2023/06/07 04:04:27;;;;;;;32.38;27.73;;;17.10;99.90;;;;;;2087479;28;20028;-78
2023/06/07 04:05:33;;;;;;;35.28;31.33;;;17.10;99.90;;;;;;2081788;28;20025;-79
2023/06/07 04:06:36;;;;;;;31.75;28.40;;;17.20;99.90;;;;;;2089421;28;20029;-79
2023/06/07 04:07:40;;;;;;;36.03;32.13;;;17.20;99.90;;;;;;2091036;28;20024;-79
2023/06/07 04:08:42;;;;;;;34.58;29.02;;;17.20;99.90;;;;;;2085276;28;20119;-79
2023/06/07 04:09:43;;;;;;;29.48;26.33;;;17.20;99.90;;;;;;2090981;28;20028;-79
2023/06/07 04:10:46;;;;;;;29.35;26.25;;;17.30;99.90;;;;;;2094899;28;20119;-78
2023/06/07 04:11:47;;;;;;;30.17;27.15;;;17.40;99.90;;;;;;2089528;28;20029;-80
2023/06/07 04:12:47;;;;;;;30.85;26.50;;;17.50;99.90;;;;;;2092369;28;20511;-77
2023/06/07 04:13:49;;;;;;;31.30;25.05;;;17.60;99.90;;;;;;2093094;28;20035;-78
2023/06/07 04:14:50;;;;;;;27.98;24.80;;;17.70;99.90;;;;;;2103071;28;20040;-80
2023/06/07 04:15:51;;;;;;;26.85;24.10;;;17.90;99.90;;;;;;2083066;28;20618;-78
2023/06/07 04:16:53;;;;;;;26.92;24.10;;;17.90;99.90;;;;;;2087941;28;20028;-78
2023/06/07 04:17:54;;;;;;;29.15;25.63;;;18.10;99.90;;;;;;2085047;28;20068;-80
2023/06/07 04:18:55;;;;;;;25.83;23.23;;;18.10;99.90;;;;;;2096321;28;20515;-79
2023/06/07 04:19:56;;;;;;;26.05;23.35;;;18.30;99.90;;;;;;2095266;28;20778;-80
2023/06/07 04:20:58;;;;;;;24.98;22.42;;;18.40;99.90;;;;;;2083336;28;20122;-80
2023/06/07 04:21:59;;;;;;;23.80;21.30;;;18.50;99.90;;;;;;2085076;28;20033;-78
2023/06/07 04:23:00;;;;;;;27.25;24.33;;;18.50;99.90;;;;;;2081762;28;20025;-81
2023/06/07 04:24:01;;;;;;;24.77;22.23;;;18.60;99.90;;;;;;2082746;28;20040;-80
2023/06/07 04:25:04;;;;;;;22.15;19.95;;;18.60;99.90;;;;;;2092200;28;20078;-81
2023/06/07 04:26:06;;;;;;;23.85;21.27;;;18.60;99.90;;;;;;2094918;28;20029;-77
2023/06/07 04:27:11;;;;;;;26.38;23.50;;;18.70;99.90;;;;;;2095017;28;20115;-80
2023/06/07 04:28:13;;;;;;;24.60;22.02;;;18.70;99.90;;;;;;2090877;28;20097;-79
2023/06/07 04:29:14;;;;;;;25.30;22.25;;;18.70;99.90;;;;;;2095078;28;20028;-79
2023/06/07 04:30:18;;;;;;;26.17;23.33;;;18.80;99.90;;;;;;2096710;28;20055;-79
2023/06/07 04:31:22;;;;;;;23.85;21.10;;;19.00;99.90;;;;;;2101822;28;20491;-79
2023/06/07 04:32:22;;;;;;;22.95;20.55;;;19.10;99.90;;;;;;2079131;28;20812;-80
2023/06/07 04:33:27;;;;;;;23.88;21.33;;;19.30;99.90;;;;;;2093706;28;20103;-82
2023/06/07 04:34:29;;;;;;;23.40;20.88;;;19.50;99.90;;;;;;2100633;28;20105;-80
2023/06/07 04:35:31;;;;;;;21.75;19.45;;;19.50;99.90;;;;;;2094181;28;20024;-79
2023/06/07 04:36:37;;;;;;;23.05;19.95;;;19.60;99.90;;;;;;2092985;28;20038;-80
2023/06/07 04:37:45;;;;;;;23.23;20.80;;;19.60;99.90;;;;;;2091411;28;20728;-80
2023/06/07 04:38:46;;;;;;;24.98;22.27;;;19.70;99.90;;;;;;2087716;28;20028;-79
2023/06/07 04:39:49;;;;;;;26.20;21.90;;;19.70;99.90;;;;;;2086280;28;20156;-80
2023/06/07 04:40:50;;;;;;;22.65;20.30;;;19.70;99.90;;;;;;2090576;28;20028;-80
2023/06/07 04:42:03;;;;;;;23.67;20.50;;;19.80;99.90;;;;;;2094291;28;20144;-82
2023/06/07 04:43:06;;;;;;;28.15;23.50;;;19.80;99.90;;;;;;2080177;28;20021;-81
2023/06/07 04:44:11;;;;;;;25.55;22.85;;;19.80;99.90;;;;;;2085430;28;20052;-81
2023/06/07 04:45:14;;;;;;;22.80;20.15;;;19.70;99.90;;;;;;2091624;28;20094;-81
2023/06/07 04:46:15;;;;;;;21.88;19.63;;;19.80;99.90;;;;;;2086431;28;20079;-80
2023/06/07 04:47:17;;;;;;;22.88;20.45;;;20.00;99.90;;;;;;2101554;28;20045;-81
2023/06/07 04:48:20;;;;;;;24.02;21.30;;;20.10;99.90;;;;;;2083505;28;20160;-80
2023/06/07 04:49:20;;;;;;;23.52;21.00;;;20.20;99.90;;;;;;2093758;28;20059;-80
2023/06/07 04:50:21;;;;;;;21.88;19.58;;;20.20;99.90;;;;;;2099571;28;20512;-80
2023/06/07 04:51:22;;;;;;;25.05;22.45;;;20.20;99.90;;;;;;2091232;28;20047;-80
2023/06/07 04:52:26;;;;;;;22.33;19.73;;;20.20;99.90;;;;;;2092153;28;20632;-78
2023/06/07 04:53:36;;;;;;;22.83;20.30;;;20.20;99.90;;;;;;2095614;28;20028;-80
2023/06/07 04:54:39;;;;;;;23.40;20.92;;;20.20;99.90;;;;;;2092899;28;20028;-82
2023/06/07 04:55:41;;;;;;;23.60;20.95;;;20.10;99.90;;;;;;2087199;28;20488;-81
2023/06/07 04:56:42;;;;;;;22.48;19.90;;;20.10;99.90;;;;;;2100816;28;20027;-81
2023/06/07 04:57:45;;;;;;;23.30;20.73;;;20.00;99.90;;;;;;2099010;28;20024;-78
2023/06/07 04:58:46;;;;;;;25.65;22.80;;;20.00;99.90;;;;;;2090143;28;20052;-82
2023/06/07 04:59:51;;;;;;;24.90;21.02;;;19.80;99.90;;;;;;2095193;28;20074;-82
2023/06/07 05:00:57;;;;;;;26.63;23.92;;;19.70;99.90;;;;;;2089148;28;20075;-81
2023/06/07 05:01:58;;;;;;;25.55;22.67;;;19.50;99.90;;;;;;2099833;28;20020;-81
2023/06/07 05:03:08;;;;;;;24.63;22.02;;;19.30;99.90;;;;;;2110502;27;20100;-81
2023/06/07 05:04:10;;;;;;;25.15;22.45;;;19.30;99.90;;;;;;2100277;28;20028;-80
2023/06/07 05:05:18;;;;;;;23.67;21.35;;;19.20;99.90;;;;;;2088400;28;20227;-81
2023/06/07 05:06:21;;;;;;;25.17;22.58;;;19.20;99.90;;;;;;2091433;28;20028;-82
2023/06/07 05:07:27;;;;;;;26.63;23.83;;;19.10;99.90;;;;;;2084164;28;20116;-80
2023/06/07 05:08:30;;;;;;;25.55;21.88;;;19.00;99.90;;;;;;2080703;28;20017;-81
2023/06/07 05:09:31;;;;;;;27.67;22.67;;;19.00;99.90;;;;;;2085944;28;20027;-81
2023/06/07 05:10:34;;;;;;;27.67;24.67;;;18.90;99.90;;;;;;2084220;28;20031;-79
2023/06/07 05:11:37;;;;;;;26.67;23.85;;;18.90;99.90;;;;;;2088041;28;20028;-81
2023/06/07 05:12:39;;;;;;;28.70;25.27;;;18.80;99.90;;;;;;2089723;28;21046;-83
2023/06/07 05:13:42;;;;;;;27.80;24.33;;;18.70;99.90;;;;;;2085066;28;20507;-82
2023/06/07 05:14:43;;;;;;;29.38;26.25;;;18.70;99.90;;;;;;2083476;28;20074;-81
2023/06/07 05:15:45;;;;;;;26.35;23.55;;;18.60;99.90;;;;;;2097039;28;20334;-81
2023/06/07 05:16:46;;;;;;;24.58;21.92;;;18.50;99.90;;;;;;2095918;28;20028;-73
2023/06/07 05:17:48;;;;;;;29.10;24.88;;;18.50;99.90;;;;;;2084629;28;20025;-76
2023/06/07 05:18:50;;;;;;;24.48;21.77;;;18.50;99.90;;;;;;2095741;28;20036;-74